createdAt,value
2023-01-29T00:01:45.086Z,-0.30
2023-01-29T00:04:13.394Z,-0.20
2023-01-29T00:06:41.539Z,-0.14
2023-01-29T00:09:10.189Z,-0.09
2023-01-29T00:11:38.237Z,-0.03
2023-01-29T00:14:06.977Z,0.04
2023-01-29T00:16:35.053Z,0.11
2023-01-29T00:19:03.625Z,0.13
2023-01-29T00:21:32.351Z,0.13
2023-01-29T00:24:00.984Z,0.16
2023-01-29T00:26:29.203Z,0.17
2023-01-29T00:28:57.685Z,0.16
2023-01-29T00:31:26.187Z,0.17
2023-01-29T00:33:54.383Z,0.16
2023-01-29T00:36:22.900Z,0.15
2023-01-29T00:38:59.757Z,0.15
2023-01-29T00:41:48.066Z,0.14
2023-01-29T00:44:35.483Z,0.12
2023-01-29T00:47:03.917Z,0.11
2023-01-29T00:49:32.252Z,0.09
2023-01-29T00:52:19.152Z,0.08
2023-01-29T00:54:47.128Z,0.07
2023-01-29T00:57:15.168Z,0.09
2023-01-29T00:59:43.218Z,0.12
2023-01-29T01:02:29.992Z,0.14
2023-01-29T01:04:58.051Z,0.17
2023-01-29T01:07:26.231Z,0.21
2023-01-29T01:10:13.043Z,0.26
2023-01-29T01:12:41.160Z,0.31
2023-01-29T01:15:09.647Z,0.33
2023-01-29T01:17:38.091Z,0.33
2023-01-29T01:20:06.335Z,0.32
2023-01-29T01:22:35.883Z,0.29
2023-01-29T01:25:04.139Z,0.25
2023-01-29T01:27:32.348Z,0.24
2023-01-29T01:30:00.585Z,0.21
2023-01-29T01:32:28.805Z,0.18
2023-01-29T01:34:57.080Z,0.16
2023-01-29T01:37:25.158Z,0.13
2023-01-29T01:39:57.909Z,0.10
2023-01-29T01:42:30.611Z,0.07
2023-01-29T01:45:04.998Z,0.05
2023-01-29T01:47:32.937Z,0.02
2023-01-29T01:50:03.400Z,-0.01
2023-01-29T01:52:31.933Z,-0.03
2023-01-29T01:55:00.767Z,-0.04
2023-01-29T01:57:29.713Z,-0.07
2023-01-29T02:00:11.403Z,-0.07
2023-01-29T02:03:03.664Z,-0.07
2023-01-29T02:05:52.177Z,-0.01
2023-01-29T02:08:45.308Z,0.07
2023-01-29T02:11:13.419Z,0.15
2023-01-29T02:13:42.899Z,0.21
2023-01-29T02:16:11.032Z,0.27
2023-01-29T02:18:39.555Z,0.30
2023-01-29T02:21:07.688Z,0.31
2023-01-29T02:24:08.210Z,0.31
2023-01-29T02:27:00.268Z,0.27
2023-01-29T02:29:33.793Z,0.25
2023-01-29T02:32:14.580Z,0.22
2023-01-29T02:35:20.935Z,0.21
2023-01-29T02:37:54.763Z,0.18
2023-01-29T02:40:28.920Z,0.14
2023-01-29T02:42:56.909Z,0.10
2023-01-29T02:45:32.905Z,0.01
2023-01-29T02:48:02.113Z,-0.09
2023-01-29T02:50:37.548Z,-0.13
2023-01-29T02:53:05.651Z,-0.12
2023-01-29T02:55:37.373Z,-0.07
2023-01-29T02:58:25.680Z,-0.02
2023-01-29T03:00:55.615Z,0.02
2023-01-29T03:03:26.925Z,0.04
2023-01-29T03:06:07.461Z,0.02
2023-01-29T03:08:42.931Z,-0.03
2023-01-29T03:11:13.878Z,-0.09
2023-01-29T03:13:52.786Z,-0.15
2023-01-29T03:16:33.097Z,-0.25
2023-01-29T03:19:14.288Z,-0.38
2023-01-29T03:21:53.876Z,-0.46
2023-01-29T03:24:45.116Z,-0.49
2023-01-29T03:27:33.493Z,-0.47
2023-01-29T03:30:20.581Z,-0.48
2023-01-29T03:32:54.293Z,-0.50
2023-01-29T03:35:35.587Z,-0.53
2023-01-29T03:38:05.784Z,-0.56
2023-01-29T03:40:57.161Z,-0.61
2023-01-29T03:43:38.015Z,-0.61
2023-01-29T03:46:35.602Z,-0.64
2023-01-29T03:49:12.906Z,-0.69
2023-01-29T03:51:41.030Z,-0.72
2023-01-29T03:54:12.117Z,-0.74
2023-01-29T03:56:40.291Z,-0.78
2023-01-29T03:59:14.687Z,-0.83
2023-01-29T04:02:30.539Z,-0.84
2023-01-29T04:05:05.884Z,-0.88
2023-01-29T04:07:36.694Z,-0.89
2023-01-29T04:10:04.927Z,-0.93
2023-01-29T04:12:41.248Z,-0.96
2023-01-29T04:15:11.570Z,-0.99
2023-01-29T04:17:41.476Z,-0.95
2023-01-29T04:20:18.088Z,-0.91
2023-01-29T04:22:48.227Z,-0.86
2023-01-29T04:25:26.732Z,-0.82
2023-01-29T04:28:31.917Z,-0.82
2023-01-29T04:31:07.058Z,-0.88
2023-01-29T04:33:40.276Z,-0.88
2023-01-29T04:36:11.631Z,-0.87
2023-01-29T04:38:47.869Z,-0.87
2023-01-29T04:41:24.884Z,-0.86
2023-01-29T04:44:03.669Z,-0.86
2023-01-29T04:46:50.909Z,-0.90
2023-01-29T04:49:27.644Z,-0.94
2023-01-29T04:51:55.775Z,-0.91
2023-01-29T04:54:23.765Z,-0.90
2023-01-29T04:57:12.462Z,-0.88
2023-01-29T04:59:42.734Z,-0.88
2023-01-29T05:02:12.357Z,-0.92
2023-01-29T05:04:41.798Z,-0.93
2023-01-29T05:07:11.853Z,-1.03
2023-01-29T05:09:42.381Z,-1.08
2023-01-29T05:12:11.775Z,-1.10
2023-01-29T05:14:42.638Z,-1.10
2023-01-29T05:17:14.448Z,-1.05
2023-01-29T05:19:42.717Z,-1.07
2023-01-29T05:22:11.555Z,-1.16
2023-01-29T05:24:39.563Z,-1.20
2023-01-29T05:27:30.486Z,-1.23
2023-01-29T05:29:58.521Z,-1.27
2023-01-29T05:32:26.525Z,-1.31
2023-01-29T05:34:54.555Z,-1.32
2023-01-29T05:37:22.688Z,-1.34
2023-01-29T05:39:50.636Z,-1.36
2023-01-29T05:42:18.738Z,-1.38
2023-01-29T05:44:46.734Z,-1.38
2023-01-29T05:47:14.762Z,-1.39
2023-01-29T05:49:42.748Z,-1.36
2023-01-29T05:52:10.763Z,-1.34
2023-01-29T05:54:38.716Z,-1.31
2023-01-29T05:57:06.627Z,-1.27
2023-01-29T05:59:34.663Z,-1.25
2023-01-29T06:02:02.708Z,-1.24
2023-01-29T06:04:30.705Z,-1.27
2023-01-29T06:06:58.758Z,-1.32
2023-01-29T06:09:26.797Z,-1.35
2023-01-29T06:11:54.773Z,-1.36
2023-01-29T06:14:22.835Z,-1.35
2023-01-29T06:16:50.744Z,-1.40
2023-01-29T06:19:19.021Z,-1.40
2023-01-29T06:21:46.972Z,-1.42
2023-01-29T06:24:15.034Z,-1.41
2023-01-29T06:26:43.263Z,-1.40
2023-01-29T06:29:11.280Z,-1.38
2023-01-29T06:31:39.915Z,-1.31
2023-01-29T06:34:08.552Z,-1.25
2023-01-29T06:36:36.772Z,-1.20
2023-01-29T06:39:04.952Z,-1.05
2023-01-29T06:41:33.134Z,-0.94
2023-01-29T06:44:01.085Z,-0.85
2023-01-29T06:46:29.186Z,-0.76
2023-01-29T06:49:00.875Z,-0.70
2023-01-29T06:51:29.076Z,-0.64
2023-01-29T06:53:57.202Z,-0.59
2023-01-29T06:56:25.295Z,-0.55
2023-01-29T06:58:53.485Z,-0.54
2023-01-29T07:01:34.997Z,-0.52
2023-01-29T07:04:04.294Z,-0.52
2023-01-29T07:06:32.651Z,-0.46
2023-01-29T07:09:00.849Z,-0.43
2023-01-29T07:11:28.837Z,-0.40
2023-01-29T07:13:56.975Z,-0.34
2023-01-29T07:16:26.445Z,-0.28
2023-01-29T07:18:54.819Z,-0.23
2023-01-29T07:21:23.136Z,-0.16
2023-01-29T07:23:51.276Z,-0.11
2023-01-29T07:26:19.355Z,-0.09
2023-01-29T07:28:47.312Z,-0.04
2023-01-29T07:31:15.673Z,0.00
2023-01-29T07:33:44.694Z,-0.00
2023-01-29T07:36:13.345Z,-0.01
2023-01-29T07:38:41.599Z,-0.05
2023-01-29T07:41:11.442Z,-0.02
2023-01-29T07:43:39.433Z,0.00
2023-01-29T07:46:07.456Z,0.03
2023-01-29T07:48:35.827Z,0.10
2023-01-29T07:51:03.891Z,0.18
2023-01-29T07:53:32.076Z,0.24
2023-01-29T07:56:00.174Z,0.32
2023-01-29T07:58:28.219Z,0.42
2023-01-29T08:00:56.376Z,0.47
2023-01-29T08:03:24.510Z,0.51
2023-01-29T08:05:52.520Z,0.58
2023-01-29T08:08:20.523Z,0.60
2023-01-29T08:10:48.456Z,0.66
2023-01-29T08:13:16.444Z,0.74
2023-01-29T08:15:45.669Z,0.78
2023-01-29T08:18:14.315Z,0.80
2023-01-29T08:20:42.346Z,0.82
2023-01-29T08:23:13.577Z,0.86
2023-01-29T08:25:41.798Z,0.91
2023-01-29T08:28:10.034Z,0.97
2023-01-29T08:30:38.089Z,0.96
2023-01-29T08:33:06.135Z,0.94
2023-01-29T08:35:34.070Z,0.98
2023-01-29T08:38:03.539Z,1.04
2023-01-29T08:40:33.289Z,1.05
2023-01-29T08:43:03.183Z,1.08
2023-01-29T08:45:34.265Z,1.12
2023-01-29T08:48:02.524Z,1.16
2023-01-29T08:50:31.897Z,1.10
2023-01-29T08:53:00.789Z,1.12
2023-01-29T08:55:29.010Z,1.12
2023-01-29T08:57:59.600Z,1.15
2023-01-29T09:00:27.658Z,1.22
2023-01-29T09:02:55.698Z,1.23
2023-01-29T09:05:23.702Z,1.14
2023-01-29T09:07:53.345Z,1.10
2023-01-29T09:10:22.097Z,1.06
2023-01-29T09:12:50.084Z,1.10
2023-01-29T09:15:18.314Z,1.08
2023-01-29T09:17:46.591Z,1.09
2023-01-29T09:20:14.495Z,1.13
2023-01-29T09:22:42.585Z,1.19
2023-01-29T09:25:11.029Z,1.27
2023-01-29T09:27:39.005Z,1.29
2023-01-29T09:30:07.437Z,1.34
2023-01-29T09:35:23.797Z,1.46
2023-01-29T09:37:51.912Z,1.47
2023-01-29T09:40:30.911Z,1.43
2023-01-29T09:43:03.033Z,1.39
2023-01-29T09:45:31.661Z,1.36
2023-01-29T09:48:02.443Z,1.38
2023-01-29T09:50:30.578Z,1.43
2023-01-29T09:53:04.981Z,1.50
2023-01-29T09:56:02.885Z,1.54
2023-01-29T09:58:33.704Z,1.55
2023-01-29T10:01:07.812Z,1.58
2023-01-29T10:03:38.926Z,1.58
2023-01-29T10:06:13.094Z,1.59
2023-01-29T10:08:46.835Z,1.55
2023-01-29T10:11:24.826Z,1.50
2023-01-29T10:14:11.882Z,1.50
2023-01-29T10:16:39.895Z,1.48
2023-01-29T10:19:07.987Z,1.45
2023-01-29T10:21:51.574Z,1.46
2023-01-29T10:24:24.248Z,1.39
2023-01-29T10:26:52.787Z,1.23
2023-01-29T10:29:22.256Z,1.23
2023-01-29T10:31:54.013Z,1.22
2023-01-29T10:34:30.339Z,1.11
2023-01-29T10:36:58.300Z,1.07
2023-01-29T10:39:27.065Z,0.98
2023-01-29T10:42:05.866Z,0.83
2023-01-29T10:44:33.736Z,0.76
2023-01-29T10:47:10.450Z,0.70
2023-01-29T10:49:41.388Z,0.69
2023-01-29T10:52:29.984Z,0.65
2023-01-29T10:55:04.624Z,0.65
2023-01-29T10:57:41.682Z,0.60
2023-01-29T11:00:13.010Z,0.61
2023-01-29T11:02:51.319Z,0.62
2023-01-29T11:05:19.492Z,0.66
2023-01-29T11:07:49.219Z,0.62
2023-01-29T11:10:21.404Z,0.55
2023-01-29T11:12:49.993Z,0.54
2023-01-29T11:15:30.727Z,0.47
2023-01-29T11:18:06.562Z,0.40
2023-01-29T11:20:34.657Z,0.31
2023-01-29T11:23:02.847Z,0.24
2023-01-29T11:25:32.776Z,0.18
2023-01-29T11:28:02.081Z,0.18
2023-01-29T11:30:35.734Z,0.18
2023-01-29T11:33:09.118Z,0.16
2023-01-29T11:35:37.195Z,0.21
2023-01-29T11:38:14.440Z,0.22
2023-01-29T11:40:42.791Z,0.27
2023-01-29T11:43:18.628Z,0.38
2023-01-29T11:45:48.179Z,0.41
2023-01-29T11:48:18.113Z,0.46
2023-01-29T11:51:03.840Z,0.44
2023-01-29T11:53:41.132Z,0.48
2023-01-29T11:56:24.302Z,0.50
2023-01-29T11:58:55.573Z,0.52
2023-01-29T12:01:30.220Z,0.52
2023-01-29T12:03:58.716Z,0.48
2023-01-29T12:06:38.065Z,0.47
2023-01-29T12:09:11.219Z,0.46
2023-01-29T12:11:39.311Z,0.38
2023-01-29T12:14:24.084Z,0.35
2023-01-29T12:17:10.751Z,0.32
2023-01-29T12:19:50.285Z,0.31
2023-01-29T12:22:23.759Z,0.30
2023-01-29T12:25:12.022Z,0.31
2023-01-29T12:27:55.058Z,0.31
2023-01-29T12:30:32.271Z,0.28
2023-01-29T12:33:03.248Z,0.29
2023-01-29T12:35:46.191Z,0.21
2023-01-29T12:38:14.214Z,0.09
2023-01-29T12:40:45.454Z,0.05
2023-01-29T12:43:23.686Z,0.01
2023-01-29T12:45:54.220Z,-0.02
2023-01-29T12:48:27.884Z,-0.02
2023-01-29T12:50:59.566Z,0.00
2023-01-29T12:53:27.683Z,-0.02
2023-01-29T12:56:00.192Z,-0.10
2023-01-29T12:58:31.848Z,-0.11
2023-01-29T13:01:23.121Z,-0.13
2023-01-29T13:03:59.170Z,-0.15
2023-01-29T13:06:30.795Z,-0.25
2023-01-29T13:09:01.842Z,-0.29
2023-01-29T13:11:37.185Z,-0.34
2023-01-29T13:14:14.535Z,-0.38
2023-01-29T13:16:44.492Z,-0.46
2023-01-29T13:19:18.783Z,-0.51
2023-01-29T13:21:47.708Z,-0.62
2023-01-29T13:24:18.033Z,-0.61
2023-01-29T13:26:46.512Z,-0.58
2023-01-29T13:29:22.851Z,-0.57
2023-01-29T13:31:52.416Z,-0.60
2023-01-29T13:34:20.479Z,-0.65
2023-01-29T13:36:50.035Z,-0.67
2023-01-29T13:39:29.662Z,-0.71
2023-01-29T13:41:59.365Z,-0.74
2023-01-29T13:44:36.066Z,-0.77
2023-01-29T13:47:06.697Z,-0.77
2023-01-29T13:49:39.750Z,-0.79
2023-01-29T13:52:26.296Z,-0.84
2023-01-29T13:54:58.689Z,-0.80
2023-01-29T13:57:44.919Z,-0.78
2023-01-29T14:00:22.290Z,-0.77
2023-01-29T14:03:08.716Z,-0.76
2023-01-29T14:05:43.003Z,-0.70
2023-01-29T14:08:13.843Z,-0.73
2023-01-29T14:10:42.874Z,-0.76
2023-01-29T14:13:19.979Z,-0.75
2023-01-29T14:15:57.169Z,-0.79
2023-01-29T14:18:29.401Z,-0.86
2023-01-29T14:20:59.405Z,-0.93
2023-01-29T14:23:30.338Z,-0.97
2023-01-29T14:26:03.078Z,-0.97
2023-01-29T14:28:32.296Z,-1.01
2023-01-29T14:31:00.705Z,-1.03
2023-01-29T14:33:43.457Z,-1.02
2023-01-29T14:36:14.503Z,-1.01
2023-01-29T14:38:53.774Z,-1.01
2023-01-29T14:41:33.367Z,-1.00
2023-01-29T14:44:21.373Z,-0.99
2023-01-29T14:46:49.796Z,-1.00
2023-01-29T14:49:37.692Z,-1.00
2023-01-29T14:52:08.471Z,-1.01
2023-01-29T14:54:39.603Z,-1.06
2023-01-29T14:57:11.175Z,-1.12
2023-01-29T14:59:46.314Z,-1.15
2023-01-29T15:02:37.534Z,-1.18
2023-01-29T15:05:08.227Z,-1.22
2023-01-29T15:07:43.103Z,-1.24
2023-01-29T15:10:24.481Z,-1.26
2023-01-29T15:12:56.360Z,-1.23
2023-01-29T15:15:24.371Z,-1.20
2023-01-29T15:18:01.997Z,-1.20
2023-01-29T15:20:32.168Z,-1.21
2023-01-29T15:23:03.481Z,-1.19
2023-01-29T15:25:37.095Z,-1.15
2023-01-29T15:28:10.269Z,-1.15
2023-01-29T15:30:38.714Z,-1.20
2023-01-29T15:33:10.563Z,-1.23
2023-01-29T15:35:39.782Z,-1.27
2023-01-29T15:38:15.929Z,-1.38
2023-01-29T15:40:53.256Z,-1.43
2023-01-29T15:43:22.749Z,-1.49
2023-01-29T15:45:51.725Z,-1.56
2023-01-29T15:48:22.850Z,-1.54
2023-01-29T15:50:54.460Z,-1.50
2023-01-29T15:53:28.181Z,-1.46
2023-01-29T15:55:58.303Z,-1.44
2023-01-29T15:58:31.341Z,-1.40
2023-01-29T16:01:00.568Z,-1.37
2023-01-29T16:03:31.044Z,-1.30
2023-01-29T16:05:59.544Z,-1.25
2023-01-29T16:08:28.226Z,-1.19
2023-01-29T16:11:03.673Z,-1.16
2023-01-29T16:13:36.920Z,-1.14
2023-01-29T16:16:16.939Z,-1.14
2023-01-29T16:18:58.934Z,-1.17
2023-01-29T16:21:37.110Z,-1.17
2023-01-29T16:24:11.908Z,-1.18
2023-01-29T16:26:43.577Z,-1.18
2023-01-29T16:29:13.334Z,-1.19
2023-01-29T16:31:43.149Z,-1.19
2023-01-29T16:34:32.727Z,-1.19
2023-01-29T16:37:02.028Z,-1.18
2023-01-29T16:39:32.838Z,-1.25
2023-01-29T16:42:10.181Z,-1.34
2023-01-29T16:44:39.466Z,-1.44
2023-01-29T16:47:15.081Z,-1.45
2023-01-29T16:49:44.364Z,-1.46
2023-01-29T16:52:31.893Z,-1.42
2023-01-29T16:55:21.516Z,-1.38
2023-01-29T16:57:53.267Z,-1.33
2023-01-29T17:00:31.087Z,-1.28
2023-01-29T17:03:08.376Z,-1.28
2023-01-29T17:05:38.085Z,-1.33
2023-01-29T17:08:07.179Z,-1.45
2023-01-29T17:10:36.054Z,-1.49
2023-01-29T17:13:06.468Z,-1.54
2023-01-29T17:15:34.481Z,-1.56
2023-01-29T17:18:03.187Z,-1.60
2023-01-29T17:20:31.920Z,-1.65
2023-01-29T17:23:00.157Z,-1.65
2023-01-29T17:25:29.232Z,-1.67
2023-01-29T17:27:59.993Z,-1.68
2023-01-29T17:30:30.793Z,-1.69
2023-01-29T17:32:58.784Z,-1.71
2023-01-29T17:35:26.792Z,-1.70
2023-01-29T17:37:54.884Z,-1.68
2023-01-29T17:40:30.116Z,-1.66
2023-01-29T17:42:58.244Z,-1.67
2023-01-29T17:45:26.521Z,-1.64
2023-01-29T17:47:54.608Z,-1.58
2023-01-29T17:50:25.107Z,-1.57
2023-01-29T17:52:54.139Z,-1.57
2023-01-29T17:55:22.165Z,-1.54
2023-01-29T17:57:50.255Z,-1.53
2023-01-29T18:00:19.876Z,-1.55
2023-01-29T18:02:48.461Z,-1.56
2023-01-29T18:05:17.623Z,-1.61
2023-01-29T18:07:47.308Z,-1.67
2023-01-29T18:10:19.682Z,-1.69
2023-01-29T18:12:47.633Z,-1.70
2023-01-29T18:15:16.123Z,-1.68
2023-01-29T18:17:44.731Z,-1.64
2023-01-29T18:20:20.918Z,-1.66
2023-01-29T18:22:49.019Z,-1.66
2023-01-29T18:25:17.705Z,-1.71
2023-01-29T18:27:45.965Z,-1.77
2023-01-29T18:30:14.206Z,-1.85
2023-01-29T18:32:42.285Z,-1.86
2023-01-29T18:35:10.360Z,-1.92
2023-01-29T18:37:38.477Z,-2.01
2023-01-29T18:40:06.776Z,-2.06
2023-01-29T18:42:36.052Z,-2.05
2023-01-29T18:45:04.881Z,-2.10
2023-01-29T18:47:32.968Z,-2.07
2023-01-29T18:50:00.975Z,-2.00
2023-01-29T18:52:28.984Z,-1.97
2023-01-29T18:54:57.149Z,-2.00
2023-01-29T18:58:29.566Z,-2.03
2023-01-29T19:00:13.693Z,-2.06
2023-01-29T19:02:43.099Z,-2.07
2023-01-29T19:05:11.716Z,-2.11
2023-01-29T19:07:39.895Z,-2.13
2023-01-29T19:10:12.625Z,-2.12
2023-01-29T19:12:42.392Z,-2.11
2023-01-29T19:15:11.430Z,-2.13
2023-01-29T19:17:39.491Z,-2.16
2023-01-29T19:20:09.721Z,-2.19
2023-01-29T19:22:37.779Z,-2.21
2023-01-29T19:25:06.290Z,-2.15
2023-01-29T19:27:34.318Z,-2.13
2023-01-29T19:30:04.598Z,-2.12
2023-01-29T19:32:32.711Z,-2.12
2023-01-29T19:35:00.725Z,-2.15
2023-01-29T19:37:30.607Z,-2.16
2023-01-29T19:39:58.796Z,-2.14
2023-01-29T19:42:27.489Z,-2.13
2023-01-29T19:44:55.488Z,-2.10
2023-01-29T19:47:23.495Z,-2.07
2023-01-29T19:49:51.626Z,-2.09
2023-01-29T19:52:51.285Z,-2.11
2023-01-29T19:55:21.163Z,-2.11
2023-01-29T19:57:51.822Z,-2.10
2023-01-29T20:00:22.506Z,-2.11
2023-01-29T20:02:50.508Z,-2.09
2023-01-29T20:05:20.529Z,-2.09
2023-01-29T20:07:50.054Z,-2.16
2023-01-29T20:10:18.830Z,-2.23
2023-01-29T20:12:47.038Z,-2.25
2023-01-29T20:15:15.117Z,-2.29
2023-01-29T20:17:45.504Z,-2.26
2023-01-29T20:20:14.013Z,-2.28
2023-01-29T20:22:42.129Z,-2.31
2023-01-29T20:25:10.250Z,-2.35
2023-01-29T20:27:38.214Z,-2.35
2023-01-29T20:30:06.498Z,-2.33
2023-01-29T20:32:35.400Z,-2.34
2023-01-29T20:35:03.454Z,-2.34
2023-01-29T20:37:31.459Z,-2.35
2023-01-29T20:39:59.420Z,-2.38
2023-01-29T20:42:27.341Z,-2.41
2023-01-29T20:44:55.450Z,-2.44
2023-01-29T20:47:23.588Z,-2.44
2023-01-29T20:49:51.568Z,-2.47
2023-01-29T20:52:19.731Z,-2.54
2023-01-29T20:54:48.079Z,-2.55
2023-01-29T20:57:16.328Z,-2.56
2023-01-29T20:59:45.265Z,-2.54
2023-01-29T21:02:13.321Z,-2.53
2023-01-29T21:04:43.545Z,-2.49
2023-01-29T21:07:12.283Z,-2.46
2023-01-29T21:09:40.236Z,-2.44
2023-01-29T21:12:08.729Z,-2.43
2023-01-29T21:14:36.746Z,-2.42
2023-01-29T21:17:05.038Z,-2.51
2023-01-29T21:19:33.164Z,-2.53
2023-01-29T21:22:01.301Z,-2.55
2023-01-29T21:24:29.679Z,-2.62
2023-01-29T21:26:57.685Z,-2.65
2023-01-29T21:29:25.834Z,-2.67
2023-01-29T21:31:53.927Z,-2.68
2023-01-29T21:34:21.899Z,-2.69
2023-01-29T21:36:50.059Z,-2.72
2023-01-29T21:39:19.686Z,-2.73
2023-01-29T21:42:07.747Z,-2.72
2023-01-29T21:44:36.257Z,-2.73
2023-01-29T21:47:14.079Z,-2.74
2023-01-29T21:49:43.217Z,-2.72
2023-01-29T21:52:12.332Z,-2.72
2023-01-29T21:54:40.760Z,-2.72
2023-01-29T21:57:12.275Z,-2.69
2023-01-29T21:59:40.475Z,-2.65
2023-01-29T22:02:14.828Z,-2.64
2023-01-29T22:04:43.598Z,-2.61
2023-01-29T22:07:12.591Z,-2.58
2023-01-29T22:09:40.776Z,-2.57
2023-01-29T22:12:09.334Z,-2.56
2023-01-29T22:14:37.338Z,-2.53
2023-01-29T22:17:05.505Z,-2.49
2023-01-29T22:19:33.621Z,-2.46
2023-01-29T22:22:01.706Z,-2.46
2023-01-29T22:24:29.778Z,-2.48
2023-01-29T22:26:57.755Z,-2.47
2023-01-29T22:29:25.809Z,-2.47
2023-01-29T22:31:53.916Z,-2.49
2023-01-29T22:34:21.946Z,-2.47
2023-01-29T22:36:50.056Z,-2.47
2023-01-29T22:39:18.007Z,-2.45
2023-01-29T22:41:47.401Z,-2.46
2023-01-29T22:44:15.377Z,-2.50
2023-01-29T22:46:43.485Z,-2.50
2023-01-29T22:49:11.607Z,-2.50
2023-01-29T22:51:39.709Z,-2.50
2023-01-29T22:54:07.652Z,-2.51
2023-01-29T22:56:35.664Z,-2.52
2023-01-29T22:59:03.705Z,-2.53
2023-01-29T23:01:32.217Z,-2.54
2023-01-29T23:04:00.472Z,-2.55
2023-01-29T23:06:28.569Z,-2.57
2023-01-29T23:08:56.644Z,-2.59
2023-01-29T23:11:24.745Z,-2.59
2023-01-29T23:13:54.053Z,-2.60
2023-01-29T23:16:25.788Z,-2.60
2023-01-29T23:18:55.328Z,-2.60
2023-01-29T23:21:25.257Z,-2.61
2023-01-29T23:23:55.427Z,-2.60
2023-01-29T23:26:42.188Z,-2.60
2023-01-29T23:29:10.373Z,-2.60
2023-01-29T23:31:38.676Z,-2.61
2023-01-29T23:34:06.774Z,-2.58
2023-01-29T23:36:34.761Z,-2.56
2023-01-29T23:39:02.798Z,-2.55
2023-01-29T23:41:30.840Z,-2.54
2023-01-29T23:43:58.948Z,-2.53
2023-01-29T23:46:26.938Z,-2.51
2023-01-29T23:48:54.927Z,-2.46
2023-01-29T23:51:22.941Z,-2.45
2023-01-29T23:53:50.909Z,-2.47
2023-01-29T23:56:18.966Z,-2.45
2023-01-29T23:58:47.151Z,-2.42
